sensor_id;sensor_type;location;lat;lon;timestamp;temperature;humidity
25200;DHT22;33094;48.782;9.162;2023-07-28T08:03:48;21.10;99.90
25200;DHT22;33094;48.782;9.162;2023-07-28T08:06:14;21.20;99.90
25200;DHT22;33094;48.782;9.162;2023-07-28T08:08:40;21.40;99.90
25200;DHT22;33094;48.782;9.162;2023-07-28T08:11:06;21.50;99.90
25200;DHT22;33094;48.782;9.162;2023-07-28T08:13:33;21.60;99.90
25200;DHT22;33094;48.782;9.162;2023-07-28T08:16:00;21.40;99.90
25200;DHT22;33094;48.782;9.162;2023-07-28T08:18:26;21.40;99.90
25200;DHT22;33094;48.782;9.162;2023-07-28T08:20:51;21.40;99.90
25200;DHT22;33094;48.782;9.162;2023-07-28T08:23:17;21.30;99.90
25200;DHT22;33094;48.782;9.162;2023-07-28T08:25:42;21.10;99.90
25200;DHT22;33094;48.782;9.162;2023-07-28T08:28:08;21.20;99.90
25200;DHT22;33094;48.782;9.162;2023-07-28T08:30:34;21.10;99.90
25200;DHT22;33094;48.782;9.162;2023-07-28T08:33:00;21.10;99.90
25200;DHT22;33094;48.782;9.162;2023-07-28T08:35:26;21.20;99.90
25200;DHT22;33094;48.782;9.162;2023-07-28T08:37:51;21.00;99.90
25200;DHT22;33094;48.782;9.162;2023-07-28T08:40:17;21.00;99.90
25200;DHT22;33094;48.782;9.162;2023-07-28T08:42:44;21.10;99.90
25200;DHT22;33094;48.782;9.162;2023-07-28T08:45:10;21.40;99.90
25200;DHT22;33094;48.782;9.162;2023-07-28T08:47:37;21.70;99.90
25200;DHT22;33094;48.782;9.162;2023-07-28T08:50:03;21.80;99.90
25200;DHT22;33094;48.782;9.162;2023-07-28T08:52:29;21.70;99.90
25200;DHT22;33094;48.782;9.162;2023-07-28T08:54:55;21.70;99.90
25200;DHT22;33094;48.782;9.162;2023-07-28T08:57:20;21.90;99.90
25200;DHT22;33094;48.782;9.162;2023-07-28T08:59:46;22.00;99.90
25200;DHT22;33094;48.782;9.162;2023-07-28T09:02:16;22.50;99.90
25200;DHT22;33094;48.782;9.162;2023-07-28T09:04:44;22.60;99.90
25200;DHT22;33094;48.782;9.162;2023-07-28T09:07:09;22.60;99.90
25200;DHT22;33094;48.782;9.162;2023-07-28T09:09:37;22.60;99.90
25200;DHT22;33094;48.782;9.162;2023-07-28T09:12:04;22.30;99.90
25200;DHT22;33094;48.782;9.162;2023-07-28T09:14:30;21.90;99.90
25200;DHT22;33094;48.782;9.162;2023-07-28T09:19:37;22.10;99.90
25200;DHT22;33094;48.782;9.162;2023-07-28T09:22:15;22.10;99.90
25200;DHT22;33094;48.782;9.162;2023-07-28T09:24:41;21.80;99.90
25200;DHT22;33094;48.782;9.162;2023-07-28T09:27:18;21.60;99.90
25200;DHT22;33094;48.782;9.162;2023-07-28T09:29:48;21.40;99.90
25200;DHT22;33094;48.782;9.162;2023-07-28T09:32:14;21.40;99.90
25200;DHT22;33094;48.782;9.162;2023-07-28T09:34:39;21.30;99.90
25200;DHT22;33094;48.782;9.162;2023-07-28T09:37:05;21.20;99.90
25200;DHT22;33094;48.782;9.162;2023-07-28T09:39:33;21.40;99.90
25200;DHT22;33094;48.782;9.162;2023-07-28T09:42:01;21.60;99.90
25200;DHT22;33094;48.782;9.162;2023-07-28T09:44:27;21.70;99.90
25200;DHT22;33094;48.782;9.162;2023-07-28T09:46:56;22.10;99.90
25200;DHT22;33094;48.782;9.162;2023-07-28T09:52:03;22.70;99.90
25200;DHT22;33094;48.782;9.162;2023-07-28T09:54:30;22.90;99.90
25200;DHT22;33094;48.782;9.162;2023-07-28T09:56:59;23.10;99.90
25200;DHT22;33094;48.782;9.162;2023-07-28T09:59:41;23.40;99.90
25200;DHT22;33094;48.782;9.162;2023-07-28T10:02:08;23.30;99.90
25200;DHT22;33094;48.782;9.162;2023-07-28T10:04:35;23.30;99.90
25200;DHT22;33094;48.782;9.162;2023-07-28T10:07:05;23.40;99.90
25200;DHT22;33094;48.782;9.162;2023-07-28T10:09:31;23.30;99.90
25200;DHT22;33094;48.782;9.162;2023-07-28T10:11:59;23.50;99.90
25200;DHT22;33094;48.782;9.162;2023-07-28T10:14:32;23.60;99.90
25200;DHT22;33094;48.782;9.162;2023-07-28T10:17:01;23.50;99.90
25200;DHT22;33094;48.782;9.162;2023-07-28T10:19:36;23.10;99.90
25200;DHT22;33094;48.782;9.162;2023-07-28T10:22:09;23.30;99.90
25200;DHT22;33094;48.782;9.162;2023-07-28T10:24:52;23.60;99.90
25200;DHT22;33094;48.782;9.162;2023-07-28T10:30:03;23.70;99.90
25200;DHT22;33094;48.782;9.162;2023-07-28T10:32:37;23.70;99.90
25200;DHT22;33094;48.782;9.162;2023-07-28T10:37:44;23.00;99.90
25200;DHT22;33094;48.782;9.162;2023-07-28T10:40:32;23.10;99.90
25200;DHT22;33094;48.782;9.162;2023-07-28T10:43:00;22.90;99.90
25200;DHT22;33094;48.782;9.162;2023-07-28T10:45:28;22.60;99.90
25200;DHT22;33094;48.782;9.162;2023-07-28T10:47:55;22.50;99.90
25200;DHT22;33094;48.782;9.162;2023-07-28T10:50:22;22.80;99.90
25200;DHT22;33094;48.782;9.162;2023-07-28T10:52:48;23.20;99.90
25200;DHT22;33094;48.782;9.162;2023-07-28T10:55:18;23.30;99.90
25200;DHT22;33094;48.782;9.162;2023-07-28T10:57:55;23.20;99.90
25200;DHT22;33094;48.782;9.162;2023-07-28T11:00:23;22.90;99.90
25200;DHT22;33094;48.782;9.162;2023-07-28T11:02:51;23.10;99.90
25200;DHT22;33094;48.782;9.162;2023-07-28T11:05:30;23.20;99.90
25200;DHT22;33094;48.782;9.162;2023-07-28T11:08:00;23.60;99.90
25200;DHT22;33094;48.782;9.162;2023-07-28T11:10:30;24.10;99.90
25200;DHT22;33094;48.782;9.162;2023-07-28T11:13:00;24.70;99.90
25200;DHT22;33094;48.782;9.162;2023-07-28T11:15:25;25.10;99.90
25200;DHT22;33094;48.782;9.162;2023-07-28T11:17:52;25.50;99.90
25200;DHT22;33094;48.782;9.162;2023-07-28T11:20:28;25.70;99.90
25200;DHT22;33094;48.782;9.162;2023-07-28T11:22:59;25.10;99.30
25200;DHT22;33094;48.782;9.162;2023-07-28T11:25:27;25.00;99.70
25200;DHT22;33094;48.782;9.162;2023-07-28T11:27:57;25.10;99.50
25200;DHT22;33094;48.782;9.162;2023-07-28T11:30:23;24.80;99.20
25200;DHT22;33094;48.782;9.162;2023-07-28T11:32:50;25.00;99.20
25200;DHT22;33094;48.782;9.162;2023-07-28T11:35:21;24.40;99.60
25200;DHT22;33094;48.782;9.162;2023-07-28T11:37:52;24.20;99.20
25200;DHT22;33094;48.782;9.162;2023-07-28T11:40:20;24.50;99.50
25200;DHT22;33094;48.782;9.162;2023-07-28T11:42:54;24.70;98.90
25200;DHT22;33094;48.782;9.162;2023-07-28T11:45:21;24.80;99.10
25200;DHT22;33094;48.782;9.162;2023-07-28T11:47:56;25.10;98.80
25200;DHT22;33094;48.782;9.162;2023-07-28T11:50:26;25.50;98.00
25200;DHT22;33094;48.782;9.162;2023-07-28T11:52:52;25.60;97.70
25200;DHT22;33094;48.782;9.162;2023-07-28T11:55:18;25.50;98.10
25200;DHT22;33094;48.782;9.162;2023-07-28T11:57:44;25.30;98.10
25200;DHT22;33094;48.782;9.162;2023-07-28T12:00:10;25.30;97.80
25200;DHT22;33094;48.782;9.162;2023-07-28T12:02:38;25.10;98.00
25200;DHT22;33094;48.782;9.162;2023-07-28T12:05:12;24.80;98.60
25200;DHT22;33094;48.782;9.162;2023-07-28T12:07:38;24.60;99.00
25200;DHT22;33094;48.782;9.162;2023-07-28T12:13:23;24.20;99.70
25200;DHT22;33094;48.782;9.162;2023-07-28T12:18:59;23.00;99.90
25200;DHT22;33094;48.782;9.162;2023-07-28T12:21:25;22.80;99.90
25200;DHT22;33094;48.782;9.162;2023-07-28T12:23:51;22.90;99.90
25200;DHT22;33094;48.782;9.162;2023-07-28T12:26:16;22.70;99.90
25200;DHT22;33094;48.782;9.162;2023-07-28T12:28:42;22.80;99.90
25200;DHT22;33094;48.782;9.162;2023-07-28T12:31:08;22.90;99.90
25200;DHT22;33094;48.782;9.162;2023-07-28T12:33:33;22.80;99.90
25200;DHT22;33094;48.782;9.162;2023-07-28T12:35:59;22.80;99.90
25200;DHT22;33094;48.782;9.162;2023-07-28T12:38:25;22.90;99.90
25200;DHT22;33094;48.782;9.162;2023-07-28T12:40:50;23.10;99.90
25200;DHT22;33094;48.782;9.162;2023-07-28T12:43:17;23.20;99.90
25200;DHT22;33094;48.782;9.162;2023-07-28T12:45:43;23.30;99.90
25200;DHT22;33094;48.782;9.162;2023-07-28T12:48:08;23.60;99.90
25200;DHT22;33094;48.782;9.162;2023-07-28T12:50:34;23.90;99.90
25200;DHT22;33094;48.782;9.162;2023-07-28T12:53:00;24.30;99.90
25200;DHT22;33094;48.782;9.162;2023-07-28T12:55:26;24.50;99.90
25200;DHT22;33094;48.782;9.162;2023-07-28T12:57:52;24.60;99.90
25200;DHT22;33094;48.782;9.162;2023-07-28T13:00:18;24.80;99.90
25200;DHT22;33094;48.782;9.162;2023-07-28T13:02:45;24.90;99.60
25200;DHT22;33094;48.782;9.162;2023-07-28T13:05:12;24.90;99.40
25200;DHT22;33094;48.782;9.162;2023-07-28T13:07:38;24.80;99.40
25200;DHT22;33094;48.782;9.162;2023-07-28T13:10:06;24.80;99.80
25200;DHT22;33094;48.782;9.162;2023-07-28T13:12:34;24.80;99.30
25200;DHT22;33094;48.782;9.162;2023-07-28T13:14:59;24.50;99.90
25200;DHT22;33094;48.782;9.162;2023-07-28T13:17:25;24.70;99.60
25200;DHT22;33094;48.782;9.162;2023-07-28T13:19:50;24.70;99.00
25200;DHT22;33094;48.782;9.162;2023-07-28T13:22:17;24.50;99.50
25200;DHT22;33094;48.782;9.162;2023-07-28T13:24:42;24.10;99.90
25200;DHT22;33094;48.782;9.162;2023-07-28T13:27:09;24.10;99.70
25200;DHT22;33094;48.782;9.162;2023-07-28T13:29:34;23.70;99.90
25200;DHT22;33094;48.782;9.162;2023-07-28T13:32:00;23.20;99.90
25200;DHT22;33094;48.782;9.162;2023-07-28T13:34:26;22.80;99.90
25200;DHT22;33094;48.782;9.162;2023-07-28T13:36:53;22.50;99.90
25200;DHT22;33094;48.782;9.162;2023-07-28T13:39:18;22.10;99.90
25200;DHT22;33094;48.782;9.162;2023-07-28T13:41:44;22.00;99.90
25200;DHT22;33094;48.782;9.162;2023-07-28T13:44:10;22.00;99.90
25200;DHT22;33094;48.782;9.162;2023-07-28T13:46:36;21.90;99.90
25200;DHT22;33094;48.782;9.162;2023-07-28T13:49:12;21.80;99.90
25200;DHT22;33094;48.782;9.162;2023-07-28T13:52:02;21.50;99.90
25200;DHT22;33094;48.782;9.162;2023-07-28T13:54:28;21.20;99.90
25200;DHT22;33094;48.782;9.162;2023-07-28T14:30:57;20.00;99.90
25200;DHT22;33094;48.782;9.162;2023-07-28T15:02:00;20.20;99.90
25200;DHT22;33094;48.782;9.162;2023-07-28T15:04:27;20.40;99.90
25200;DHT22;33094;48.782;9.162;2023-07-28T15:06:53;20.40;99.90
25200;DHT22;33094;48.782;9.162;2023-07-28T15:09:19;20.30;99.90
25200;DHT22;33094;48.782;9.162;2023-07-28T15:11:48;20.40;99.90
25200;DHT22;33094;48.782;9.162;2023-07-28T15:14:13;20.40;99.90
25200;DHT22;33094;48.782;9.162;2023-07-28T15:16:39;20.50;99.90
25200;DHT22;33094;48.782;9.162;2023-07-28T15:19:05;20.60;99.90
25200;DHT22;33094;48.782;9.162;2023-07-28T15:21:30;20.80;99.90
25200;DHT22;33094;48.782;9.162;2023-07-28T15:23:56;20.90;99.90
25200;DHT22;33094;48.782;9.162;2023-07-28T15:26:22;21.00;99.90
25200;DHT22;33094;48.782;9.162;2023-07-28T15:28:47;21.20;99.90
25200;DHT22;33094;48.782;9.162;2023-07-28T15:31:13;21.30;99.90
25200;DHT22;33094;48.782;9.162;2023-07-28T15:33:39;21.40;99.90
25200;DHT22;33094;48.782;9.162;2023-07-28T15:36:05;21.40;99.90
25200;DHT22;33094;48.782;9.162;2023-07-28T15:38:31;21.40;99.90
25200;DHT22;33094;48.782;9.162;2023-07-28T15:40:57;21.10;99.90
25200;DHT22;33094;48.782;9.162;2023-07-28T15:43:24;21.00;99.90
25200;DHT22;33094;48.782;9.162;2023-07-28T15:45:51;20.80;99.90
25200;DHT22;33094;48.782;9.162;2023-07-28T15:48:20;20.80;99.90
25200;DHT22;33094;48.782;9.162;2023-07-28T15:50:45;20.80;99.90
25200;DHT22;33094;48.782;9.162;2023-07-28T15:53:11;20.70;99.90
25200;DHT22;33094;48.782;9.162;2023-07-28T15:55:37;20.70;99.90
25200;DHT22;33094;48.782;9.162;2023-07-28T15:58:03;20.60;99.90
25200;DHT22;33094;48.782;9.162;2023-07-28T16:00:29;20.70;99.90
25200;DHT22;33094;48.782;9.162;2023-07-28T16:02:54;20.80;99.90
25200;DHT22;33094;48.782;9.162;2023-07-28T16:05:23;20.70;99.90
25200;DHT22;33094;48.782;9.162;2023-07-28T16:07:49;20.70;99.90
25200;DHT22;33094;48.782;9.162;2023-07-28T16:10:14;20.80;99.90
25200;DHT22;33094;48.782;9.162;2023-07-28T16:12:40;20.90;99.90
25200;DHT22;33094;48.782;9.162;2023-07-28T16:15:06;20.90;99.90
25200;DHT22;33094;48.782;9.162;2023-07-28T16:17:32;20.90;99.90
25200;DHT22;33094;48.782;9.162;2023-07-28T16:19:57;21.00;99.90
25200;DHT22;33094;48.782;9.162;2023-07-28T16:22:23;21.00;99.90
25200;DHT22;33094;48.782;9.162;2023-07-28T16:24:49;21.00;99.90
25200;DHT22;33094;48.782;9.162;2023-07-28T16:27:15;21.10;99.90
25200;DHT22;33094;48.782;9.162;2023-07-28T16:29:41;21.10;99.90
25200;DHT22;33094;48.782;9.162;2023-07-28T16:32:07;21.00;99.90
25200;DHT22;33094;48.782;9.162;2023-07-28T16:34:34;21.00;99.90
25200;DHT22;33094;48.782;9.162;2023-07-28T17:10:38;20.90;99.90
25200;DHT22;33094;48.782;9.162;2023-07-28T17:13:03;21.00;99.90
25200;DHT22;33094;48.782;9.162;2023-07-28T17:15:29;21.00;99.90
25200;DHT22;33094;48.782;9.162;2023-07-28T17:17:55;21.10;99.90
25200;DHT22;33094;48.782;9.162;2023-07-28T17:20:20;21.30;99.90
25200;DHT22;33094;48.782;9.162;2023-07-28T17:22:46;21.40;99.90
25200;DHT22;33094;48.782;9.162;2023-07-28T17:25:12;21.30;99.90
25200;DHT22;33094;48.782;9.162;2023-07-28T17:27:56;21.20;99.90
25200;DHT22;33094;48.782;9.162;2023-07-28T17:30:22;21.30;99.90
25200;DHT22;33094;48.782;9.162;2023-07-28T17:32:47;21.20;99.90
25200;DHT22;33094;48.782;9.162;2023-07-28T17:35:15;21.10;99.90
25200;DHT22;33094;48.782;9.162;2023-07-28T17:37:43;21.10;99.90
25200;DHT22;33094;48.782;9.162;2023-07-28T17:40:15;21.00;99.90
25200;DHT22;33094;48.782;9.162;2023-07-28T17:42:41;21.00;99.90
25200;DHT22;33094;48.782;9.162;2023-07-28T17:45:07;21.00;99.90
25200;DHT22;33094;48.782;9.162;2023-07-28T17:47:36;21.00;99.90
25200;DHT22;33094;48.782;9.162;2023-07-28T17:50:10;20.90;99.90
25200;DHT22;33094;48.782;9.162;2023-07-28T17:52:41;21.00;99.90
25200;DHT22;33094;48.782;9.162;2023-07-28T17:55:10;21.00;99.90
25200;DHT22;33094;48.782;9.162;2023-07-28T17:57:38;21.10;99.90
25200;DHT22;33094;48.782;9.162;2023-07-28T18:00:06;21.00;99.90
25200;DHT22;33094;48.782;9.162;2023-07-28T18:02:39;20.90;99.90
25200;DHT22;33094;48.782;9.162;2023-07-28T18:05:06;21.00;99.90
25200;DHT22;33094;48.782;9.162;2023-07-28T18:07:33;21.10;99.90
25200;DHT22;33094;48.782;9.162;2023-07-28T18:09:59;20.90;99.90
25200;DHT22;33094;48.782;9.162;2023-07-28T18:12:24;20.80;99.90
25200;DHT22;33094;48.782;9.162;2023-07-28T18:14:54;20.80;99.90
25200;DHT22;33094;48.782;9.162;2023-07-28T18:17:22;20.90;99.90
25200;DHT22;33094;48.782;9.162;2023-07-28T18:19:51;21.00;99.90
25200;DHT22;33094;48.782;9.162;2023-07-28T18:22:18;20.90;99.90
25200;DHT22;33094;48.782;9.162;2023-07-28T18:24:44;20.80;99.90
25200;DHT22;33094;48.782;9.162;2023-07-28T18:27:10;20.80;99.90
25200;DHT22;33094;48.782;9.162;2023-07-28T18:29:37;20.70;99.90
25200;DHT22;33094;48.782;9.162;2023-07-28T18:32:05;20.70;99.90
25200;DHT22;33094;48.782;9.162;2023-07-28T18:34:31;20.60;99.90
25200;DHT22;33094;48.782;9.162;2023-07-28T18:36:57;20.50;99.90
25200;DHT22;33094;48.782;9.162;2023-07-28T18:39:22;20.30;99.90
25200;DHT22;33094;48.782;9.162;2023-07-28T18:41:48;20.30;99.90
25200;DHT22;33094;48.782;9.162;2023-07-28T18:44:14;20.30;99.90
25200;DHT22;33094;48.782;9.162;2023-07-28T18:46:39;20.30;99.90
25200;DHT22;33094;48.782;9.162;2023-07-28T18:49:05;20.20;99.90
25200;DHT22;33094;48.782;9.162;2023-07-28T18:51:30;20.20;99.90
25200;DHT22;33094;48.782;9.162;2023-07-28T18:53:58;20.10;99.90
25200;DHT22;33094;48.782;9.162;2023-07-28T18:56:25;20.10;99.90
25200;DHT22;33094;48.782;9.162;2023-07-28T18:58:50;20.00;99.90
25200;DHT22;33094;48.782;9.162;2023-07-28T19:01:16;20.00;99.90
25200;DHT22;33094;48.782;9.162;2023-07-28T19:03:49;20.00;99.90
25200;DHT22;33094;48.782;9.162;2023-07-28T19:06:16;20.00;99.90
25200;DHT22;33094;48.782;9.162;2023-07-28T19:08:45;20.00;99.90
25200;DHT22;33094;48.782;9.162;2023-07-28T19:11:14;20.10;99.90
25200;DHT22;33094;48.782;9.162;2023-07-28T19:31:33;19.80;99.90
25200;DHT22;33094;48.782;9.162;2023-07-28T19:34:02;19.90;99.90
25200;DHT22;33094;48.782;9.162;2023-07-28T19:36:29;19.90;99.90
25200;DHT22;33094;48.782;9.162;2023-07-28T19:38:55;19.90;99.90
25200;DHT22;33094;48.782;9.162;2023-07-28T19:41:20;19.90;99.90
25200;DHT22;33094;48.782;9.162;2023-07-28T19:43:47;20.00;99.90
25200;DHT22;33094;48.782;9.162;2023-07-28T19:46:13;20.00;99.90
